Kelly, WY (83011)

6:55 AM MDT on September 03, 2015 (GMT -0600)
Jackson Hole | | Change Station
CLOSE
Current Station
Airport
Location: Jackson,
Elevation: 6450 ft
Nearby Weather Stations

Elev 6450 ft 43.61 °N, 110.74 °W | Updated 20 minutes ago

Partly Cloudy
Partly Cloudy
55 °F
Feels Like 55 °F
N
0
Wind Variable Wind from North

Today
High -- | Low -- °F
--% Chance of Precip.
Yesterday
High -- | Low -- °F
Precip. -- in
6:47 AM 7:53 PM
Waning Gibbous, 70% visible
Pressure 29.99 in
Visibility 10.0 miles
Clouds Scattered Clouds 11000 ft
Dew Point 39 °F
Humidity 54%
Rainfall 0.00 in
Snow Depth Not available.
UV 0 out of 12
Pollen 9.40 out of 12
Air Quality Not available.
Flu Activity Not available.
METAR KJAC 031235Z 00000KT 10SM SCT110 13/04 A2999 RMK AO1
Pressure 29.99 in
Visibility 10.0 miles
Clouds Scattered Clouds 11000 ft
Dew Point 39 °F
Humidity 54%
Rainfall 0.00 in
Snow Depth Not available.
UV 0 out of 12
Pollen 9.40 out of 12
Air Quality Not available.
Flu Activity Not available.
METAR KJAC 031235Z 00000KT 10SM SCT110 13/04 A2999 RMK AO1

10-Day Weather Forecast

×

Almanac

Astronomy

Sep. 03, 2015 Rise Set
Actual Time
Civil Twilight
Nautical Twilight
Astronomical Twilight
Moon
Length of Visible Light
Length of Day
Tomorrow will be .
, % of the Moon is Illuminated

Today's Extremes

State Highs State Lows

Community

WunderPhotos

Upload Photos

1,851,946 photos uploaded!

WunderBlogs® & News

Nearby

Air Quality

  Air Quality AQ Index Pollutant
Not available.

Snow Depth

Station Depth Elevation

Earthquake Activity

City Distance Mag. Time & Date
Minimum magnitude displayed is 2.5.

Coastal Water Temperatures

Place Temperature

Stations

Nearby Weather Stations

Station Location Temp. Windchill Dew Point Humidity Wind Precip. Elev Updated Type